Time;durP1;ratioP1;P1;durP2;ratioP2;P2;SDS_P1;SDS_P2;PMS_P1;PMS_P2;Temp;Humidity;BMP_temperature;BMP_pressure;BME280_temperature;BME280_humidity;BME280_pressure;Samples;Min_cycle;Max_cycle;Signal;HPM_P1;HPM_P2
2021/09/27 00:01:55;;;;;;;1130.72;999.90;;;;;;;;;;4996068;28;20484;-79
2021/09/27 00:04:20;;;;;;;1125.80;999.90;;;;;;;;;;4999688;28;20065;-80
2021/09/27 00:06:46;;;;;;;1131.65;999.90;;;;;;;;;;5000265;28;20037;-80
2021/09/27 00:09:12;;;;;;;1127.88;999.90;;;;;;;;;;5000220;28;20026;-81
2021/09/27 00:11:39;;;;;;;1140.45;999.90;;;;;;;;;;5000015;28;20068;-79
2021/09/27 00:14:05;;;;;;;1135.65;999.90;;;;;;;;;;4999167;28;20026;-81
2021/09/27 00:16:31;;;;;;;1138.35;999.90;;;;;;;;;;4999103;28;20025;-80
2021/09/27 00:18:58;;;;;;;1133.00;999.90;;;;;;;;;;4998955;28;20514;-80
2021/09/27 00:21:26;;;;;;;1138.43;999.90;;;;;;;;;;4997994;28;20045;-81
2021/09/27 00:23:52;;;;;;;1133.60;999.90;;;;;;;;;;4996912;28;20049;-80
2021/09/27 00:26:19;;;;;;;1138.00;999.90;;;;;;;;;;5002588;28;20606;-80
2021/09/27 00:28:45;;;;;;;1138.78;999.90;;;;;;;;;;4998019;28;20033;-80
2021/09/27 00:31:11;;;;;;;1143.05;999.90;;;;;;;;;;4999291;28;20030;-80
2021/09/27 00:33:37;;;;;;;1138.15;999.90;;;;;;;;;;4996834;28;20034;-81
2021/09/27 00:36:04;;;;;;;1129.10;999.90;;;;;;;;;;4996362;28;20026;-81
2021/09/27 00:38:30;;;;;;;1130.68;999.90;;;;;;;;;;5000139;28;20041;-80
2021/09/27 00:40:58;;;;;;;1133.18;999.90;;;;;;;;;;5002984;28;20026;-81
2021/09/27 00:43:25;;;;;;;1133.00;999.90;;;;;;;;;;4997999;28;22038;-80
2021/09/27 00:45:53;;;;;;;1137.68;999.90;;;;;;;;;;5000450;28;20379;-80
2021/09/27 00:48:19;;;;;;;1133.72;999.90;;;;;;;;;;5000327;28;20052;-80
2021/09/27 00:50:47;;;;;;;1127.15;999.90;;;;;;;;;;5008539;28;20026;-80
2021/09/27 00:53:36;;;;;;;1134.13;999.90;;;;;;;;;;5013878;28;20069;-80
2021/09/27 00:56:03;;;;;;;1120.85;999.90;;;;;;;;;;4993736;28;20062;-79
2021/09/27 00:58:30;;;;;;;1123.97;999.90;;;;;;;;;;4997466;28;20026;-79
2021/09/27 01:00:57;;;;;;;1123.72;999.90;;;;;;;;;;4999222;28;20022;-79
2021/09/27 01:03:23;;;;;;;1115.32;999.88;;;;;;;;;;4996082;28;20433;-79
2021/09/27 01:05:54;;;;;;;1121.97;999.90;;;;;;;;;;4996168;28;20030;-79
2021/09/27 01:08:38;;;;;;;1123.82;999.90;;;;;;;;;;4998709;28;20033;-80
2021/09/27 01:11:13;;;;;;;1118.30;999.90;;;;;;;;;;4997196;28;20029;-78
2021/09/27 01:13:57;;;;;;;1113.70;999.38;;;;;;;;;;5000776;28;20311;-78
2021/09/27 01:16:39;;;;;;;1104.88;995.35;;;;;;;;;;5001299;28;20022;-79
2021/09/27 01:19:25;;;;;;;1107.32;996.70;;;;;;;;;;5002275;28;20465;-78
2021/09/27 01:21:58;;;;;;;1107.78;996.55;;;;;;;;;;5000096;28;20430;-78
2021/09/27 01:24:48;;;;;;;1107.85;997.15;;;;;;;;;;5003263;28;20246;-79
2021/09/27 01:27:17;;;;;;;1098.17;989.50;;;;;;;;;;5000368;28;20025;-78
2021/09/27 01:29:43;;;;;;;1110.40;998.28;;;;;;;;;;5002855;28;20033;-77
2021/09/27 01:32:26;;;;;;;1114.60;999.53;;;;;;;;;;4999996;28;20524;-79
2021/09/27 01:34:58;;;;;;;1104.80;994.78;;;;;;;;;;5002427;28;20532;-79
2021/09/27 01:37:43;;;;;;;1110.47;998.17;;;;;;;;;;5001459;28;20030;-79
2021/09/27 01:40:28;;;;;;;1098.55;989.67;;;;;;;;;;5005032;28;20395;-78
2021/09/27 01:43:12;;;;;;;1101.85;992.78;;;;;;;;;;4999264;28;20794;-78
2021/09/27 01:45:41;;;;;;;1105.40;995.38;;;;;;;;;;5002149;28;20038;-79
2021/09/27 01:48:14;;;;;;;1097.40;988.47;;;;;;;;;;5000056;28;20549;-79
2021/09/27 01:50:43;;;;;;;1115.25;999.63;;;;;;;;;;4999025;28;20038;-79
2021/09/27 01:53:20;;;;;;;1109.15;997.35;;;;;;;;;;5000041;28;20565;-79
2021/09/27 01:55:50;;;;;;;1110.30;997.97;;;;;;;;;;5002449;28;20040;-78
2021/09/27 01:58:30;;;;;;;1107.78;997.05;;;;;;;;;;5002884;28;20034;-78
2021/09/27 02:00:56;;;;;;;;;;;;;;;;;;5002325;28;20032;-79
2021/09/27 02:03:26;;;;;;;1085.93;977.15;;;;;;;;;;5000174;28;19909;-79
2021/09/27 02:05:55;;;;;;;1104.07;994.15;;;;;;;;;;4999569;28;20083;-79
2021/09/27 02:08:34;;;;;;;1108.13;996.58;;;;;;;;;;5000410;28;20046;-79
2021/09/27 02:11:04;;;;;;;1109.60;997.80;;;;;;;;;;5000728;28;20026;-78
2021/09/27 02:13:34;;;;;;;1102.18;992.55;;;;;;;;;;4996858;28;20112;-79
2021/09/27 02:16:06;;;;;;;1104.70;994.63;;;;;;;;;;5002440;28;20497;-78
2021/09/27 02:18:55;;;;;;;1106.03;995.75;;;;;;;;;;4999462;28;20022;-79
2021/09/27 02:21:29;;;;;;;1101.82;992.33;;;;;;;;;;4999566;28;20026;-78
2021/09/27 02:24:05;;;;;;;1103.72;994.33;;;;;;;;;;5003662;28;20029;-78
2021/09/27 02:26:31;;;;;;;1101.07;991.22;;;;;;;;;;5008370;28;20113;-79
2021/09/27 02:28:58;;;;;;;1099.65;990.28;;;;;;;;;;5002257;28;20034;-77
2021/09/27 02:31:39;;;;;;;1101.03;991.90;;;;;;;;;;5002851;28;20168;-79
2021/09/27 02:34:08;;;;;;;1099.45;990.25;;;;;;;;;;5001643;28;20029;-80
2021/09/27 02:36:39;;;;;;;1096.87;987.57;;;;;;;;;;5001845;28;20117;-78
2021/09/27 02:39:21;;;;;;;1098.65;989.55;;;;;;;;;;5005936;28;20029;-77
2021/09/27 02:41:56;;;;;;;1099.03;990.13;;;;;;;;;;5020140;28;20108;-80
2021/09/27 02:44:22;;;;;;;1100.00;990.83;;;;;;;;;;4999054;28;20032;-78
2021/09/27 02:46:55;;;;;;;1099.38;990.20;;;;;;;;;;5002998;28;20030;-79
2021/09/27 02:49:26;;;;;;;1101.18;991.90;;;;;;;;;;5001997;28;20038;-79
2021/09/27 02:51:52;;;;;;;1100.28;991.10;;;;;;;;;;5006092;28;20433;-79
2021/09/27 02:54:25;;;;;;;1101.68;992.47;;;;;;;;;;5002290;28;20046;-77
2021/09/27 02:56:52;;;;;;;1105.35;995.08;;;;;;;;;;5017007;28;20124;-79
2021/09/27 02:59:31;;;;;;;1106.32;995.92;;;;;;;;;;5009021;28;20100;-78
2021/09/27 03:02:05;;;;;;;1100.22;990.58;;;;;;;;;;5013984;28;20492;-80
2021/09/27 03:04:40;;;;;;;1109.93;997.33;;;;;;;;;;5008393;28;20045;-78
2021/09/27 03:07:18;;;;;;;1109.47;997.65;;;;;;;;;;5007667;28;20029;-79
2021/09/27 03:09:44;;;;;;;1106.43;995.80;;;;;;;;;;5007052;28;20038;-79
2021/09/27 03:12:15;;;;;;;1118.05;999.90;;;;;;;;;;5008322;28;20037;-78
2021/09/27 03:14:54;;;;;;;1112.78;999.20;;;;;;;;;;5007302;28;20048;-78
2021/09/27 03:17:29;;;;;;;1101.40;991.75;;;;;;;;;;5009107;28;20482;-78
2021/09/27 03:20:08;;;;;;;1099.95;990.47;;;;;;;;;;5007248;28;20401;-78
2021/09/27 03:22:34;;;;;;;1095.95;986.35;;;;;;;;;;5007263;28;20026;-79
2021/09/27 03:25:06;;;;;;;1097.75;988.28;;;;;;;;;;5001030;28;20189;-78
2021/09/27 03:27:38;;;;;;;1110.03;997.90;;;;;;;;;;4997846;28;20038;-78
2021/09/27 03:30:19;;;;;;;1105.60;995.22;;;;;;;;;;5002594;28;20049;-79
2021/09/27 03:33:04;;;;;;;1109.78;997.83;;;;;;;;;;4997702;28;20030;-80
2021/09/27 03:35:33;;;;;;;1095.95;986.50;;;;;;;;;;5029659;28;20022;-78
2021/09/27 03:38:19;;;;;;;1096.18;986.83;;;;;;;;;;4999373;28;20033;-78
2021/09/27 03:40:54;;;;;;;1100.35;990.78;;;;;;;;;;4986939;28;20034;-76
2021/09/27 03:43:25;;;;;;;1095.60;986.10;;;;;;;;;;4997786;28;20386;-78
2021/09/27 03:46:09;;;;;;;1097.70;988.05;;;;;;;;;;4998770;28;20112;-80
2021/09/27 03:48:40;;;;;;;1104.43;994.03;;;;;;;;;;5011120;28;20033;-79
2021/09/27 03:51:11;;;;;;;1100.03;989.67;;;;;;;;;;5000346;28;20037;-79
2021/09/27 03:53:40;;;;;;;1097.18;987.30;;;;;;;;;;5000789;28;20668;-78
2021/09/27 03:56:09;;;;;;;1104.13;994.03;;;;;;;;;;5001665;28;20022;-78
2021/09/27 03:58:38;;;;;;;1104.33;994.33;;;;;;;;;;4996879;28;20053;-78
2021/09/27 04:01:07;;;;;;;1104.03;993.85;;;;;;;;;;4999247;28;20312;-79
2021/09/27 04:03:43;;;;;;;1109.65;997.70;;;;;;;;;;4991052;28;20030;-78
2021/09/27 04:06:09;;;;;;;1103.53;993.33;;;;;;;;;;5008302;28;20025;-78
2021/09/27 04:08:41;;;;;;;1102.97;992.90;;;;;;;;;;4999647;28;20194;-77
2021/09/27 04:11:27;;;;;;;1110.45;997.78;;;;;;;;;;4989340;28;20227;-77
2021/09/27 04:14:04;;;;;;;1106.32;995.33;;;;;;;;;;4995974;28;20084;-78
2021/09/27 04:16:49;;;;;;;1109.10;997.25;;;;;;;;;;5002051;28;20026;-79
2021/09/27 04:19:18;;;;;;;1104.38;994.30;;;;;;;;;;4999531;28;20025;-76
2021/09/27 04:21:58;;;;;;;1109.75;997.83;;;;;;;;;;5000700;28;20112;-79
2021/09/27 04:24:30;;;;;;;1100.13;990.72;;;;;;;;;;4998835;28;20041;-78
2021/09/27 04:27:15;;;;;;;1105.72;995.17;;;;;;;;;;5001309;28;20033;-78
2021/09/27 04:29:47;;;;;;;1099.70;990.17;;;;;;;;;;4997232;28;20030;-78
2021/09/27 04:32:42;;;;;;;1101.53;991.95;;;;;;;;;;4999407;28;20040;-78
2021/09/27 04:35:08;;;;;;;1103.97;993.97;;;;;;;;;;5000607;28;20478;-80
2021/09/27 04:37:37;;;;;;;1111.35;998.53;;;;;;;;;;5002088;28;20037;-78
2021/09/27 04:40:04;;;;;;;1105.57;995.10;;;;;;;;;;5001813;28;20033;-79
2021/09/27 04:42:40;;;;;;;1110.13;997.60;;;;;;;;;;5031111;28;20121;-78
2021/09/27 04:45:14;;;;;;;1113.15;998.67;;;;;;;;;;4998284;28;20482;-78
2021/09/27 04:47:47;;;;;;;1115.45;999.58;;;;;;;;;;5017873;28;20549;-78
2021/09/27 04:50:13;;;;;;;1109.30;997.45;;;;;;;;;;5002831;28;20067;-79
2021/09/27 04:52:57;;;;;;;1119.90;999.90;;;;;;;;;;5021706;28;20596;-79
2021/09/27 04:55:26;;;;;;;1107.78;996.60;;;;;;;;;;5009692;28;20090;-80
2021/09/27 04:58:05;;;;;;;1109.78;997.63;;;;;;;;;;5010113;28;20045;-80
2021/09/27 05:00:39;;;;;;;1108.78;997.22;;;;;;;;;;5043114;28;20375;-78
2021/09/27 05:03:22;;;;;;;1114.22;999.30;;;;;;;;;;5008148;28;20425;-77
2021/09/27 05:06:07;;;;;;;1106.75;996.03;;;;;;;;;;5011953;28;20474;-79
2021/09/27 05:08:52;;;;;;;1116.43;999.63;;;;;;;;;;5010210;28;20446;-80
2021/09/27 05:11:24;;;;;;;1106.10;995.53;;;;;;;;;;5008011;28;20086;-80
2021/09/27 05:14:09;;;;;;;1108.53;997.10;;;;;;;;;;5010384;28;20030;-79
2021/09/27 05:16:41;;;;;;;1108.53;996.55;;;;;;;;;;5035120;28;20064;-76
2021/09/27 05:19:19;;;;;;;1119.95;999.90;;;;;;;;;;5023604;28;20548;-78
2021/09/27 05:21:45;;;;;;;1114.22;999.28;;;;;;;;;;5000275;28;20045;-77
2021/09/27 05:24:29;;;;;;;1120.03;999.90;;;;;;;;;;5007428;28;20508;-79
2021/09/27 05:26:59;;;;;;;1111.57;998.30;;;;;;;;;;5004905;28;20502;-77
2021/09/27 05:29:34;;;;;;;1110.25;997.40;;;;;;;;;;5003104;28;20037;-78
2021/09/27 05:32:06;;;;;;;1112.07;998.78;;;;;;;;;;5017121;28;20057;-79
2021/09/27 05:34:48;;;;;;;1106.70;995.80;;;;;;;;;;5007011;28;20034;-78
2021/09/27 05:37:32;;;;;;;1104.00;993.70;;;;;;;;;;5010043;28;20058;-78
2021/09/27 05:40:07;;;;;;;1099.10;989.40;;;;;;;;;;5008094;28;20076;-78
2021/09/27 05:42:42;;;;;;;1093.72;984.50;;;;;;;;;;5005548;28;20109;-78
2021/09/27 05:45:17;;;;;;;1099.10;989.72;;;;;;;;;;5004299;28;20437;-78
2021/09/27 05:47:52;;;;;;;1102.35;992.63;;;;;;;;;;5005206;28;20053;-78
2021/09/27 05:50:21;;;;;;;1107.70;996.53;;;;;;;;;;5003705;28;20032;-78
2021/09/27 05:53:06;;;;;;;1099.20;990.03;;;;;;;;;;5004502;28;20033;-79
2021/09/27 05:55:44;;;;;;;1095.18;985.95;;;;;;;;;;5003934;28;20092;-78
2021/09/27 05:58:17;;;;;;;1099.97;991.00;;;;;;;;;;5011044;28;20111;-79
2021/09/27 06:00:49;;;;;;;1099.40;990.15;;;;;;;;;;4999877;28;20045;-77
2021/09/27 06:03:34;;;;;;;1110.68;998.13;;;;;;;;;;5002697;28;20389;-77
2021/09/27 06:06:21;;;;;;;1103.30;993.65;;;;;;;;;;5005293;28;20026;-77
2021/09/27 06:09:12;;;;;;;1110.15;998.10;;;;;;;;;;5002262;28;20076;-78
2021/09/27 06:11:49;;;;;;;1104.40;994.22;;;;;;;;;;5002542;28;20125;-79
2021/09/27 06:14:16;;;;;;;1107.80;996.83;;;;;;;;;;5003489;28;20040;-77
2021/09/27 06:16:41;;;;;;;1114.45;999.50;;;;;;;;;;5003996;28;20662;-76
2021/09/27 06:19:20;;;;;;;1113.88;999.40;;;;;;;;;;5003614;28;20030;-78
2021/09/27 06:21:56;;;;;;;1112.55;999.17;;;;;;;;;;5001571;28;20032;-78
2021/09/27 06:24:31;;;;;;;1109.75;997.92;;;;;;;;;;5005843;28;20525;-77
2021/09/27 06:27:09;;;;;;;1110.70;998.35;;;;;;;;;;5008585;28;20438;-77
2021/09/27 06:29:57;;;;;;;1109.75;997.88;;;;;;;;;;5007694;28;21206;-78
2021/09/27 06:32:36;;;;;;;1116.90;999.90;;;;;;;;;;5006512;28;20091;-79
2021/09/27 06:35:06;;;;;;;1123.00;999.90;;;;;;;;;;5006974;28;20551;-77
2021/09/27 06:37:33;;;;;;;1122.40;999.90;;;;;;;;;;5004298;28;20132;-78
2021/09/27 06:40:11;;;;;;;1125.43;999.90;;;;;;;;;;5005501;28;20026;-78
2021/09/27 06:42:37;;;;;;;1131.43;999.90;;;;;;;;;;5005590;28;20038;-78
2021/09/27 06:45:04;;;;;;;1134.72;999.90;;;;;;;;;;5005568;28;20025;-78
2021/09/27 06:47:30;;;;;;;1132.80;999.90;;;;;;;;;;5005811;28;20040;-78
2021/09/27 06:49:56;;;;;;;1141.00;999.90;;;;;;;;;;5024122;28;20025;-78
2021/09/27 06:52:22;;;;;;;1136.43;999.90;;;;;;;;;;5006543;28;20029;-78
2021/09/27 06:54:48;;;;;;;1136.85;999.90;;;;;;;;;;5007165;28;20480;-79
2021/09/27 06:57:14;;;;;;;1139.05;999.90;;;;;;;;;;5006675;28;20055;-77
2021/09/27 06:59:40;;;;;;;1132.18;999.90;;;;;;;;;;5005451;28;20030;-78
2021/09/27 07:02:07;;;;;;;1138.53;999.90;;;;;;;;;;5006082;28;20320;-76
2021/09/27 07:04:33;;;;;;;1148.63;999.90;;;;;;;;;;5011291;28;20026;-77
2021/09/27 07:06:59;;;;;;;1140.13;999.90;;;;;;;;;;5003544;28;20177;-78
2021/09/27 07:09:25;;;;;;;1141.65;999.90;;;;;;;;;;5006543;28;20026;-78
2021/09/27 07:11:51;;;;;;;1144.13;999.90;;;;;;;;;;5006640;28;20486;-79
2021/09/27 07:14:19;;;;;;;1143.90;999.90;;;;;;;;;;5006291;28;20386;-77
2021/09/27 07:16:45;;;;;;;1145.07;999.90;;;;;;;;;;5006668;28;20063;-78
2021/09/27 07:19:12;;;;;;;1144.25;999.90;;;;;;;;;;5003629;28;20119;-78
2021/09/27 07:21:39;;;;;;;1149.13;999.90;;;;;;;;;;5006684;28;20025;-76
2021/09/27 07:24:05;;;;;;;1148.97;999.90;;;;;;;;;;5008628;28;20022;-78
2021/09/27 07:26:32;;;;;;;1149.38;999.90;;;;;;;;;;5003678;28;20091;-77
2021/09/27 07:28:59;;;;;;;1143.07;999.90;;;;;;;;;;5004317;28;20104;-77
2021/09/27 07:31:27;;;;;;;1143.30;999.90;;;;;;;;;;5003162;28;20026;-77
2021/09/27 07:33:54;;;;;;;1148.65;999.90;;;;;;;;;;5006670;28;20448;-77
2021/09/27 07:36:20;;;;;;;1157.07;999.90;;;;;;;;;;5034289;28;20125;-77
2021/09/27 07:38:46;;;;;;;1160.28;999.90;;;;;;;;;;5005098;28;20057;-78
2021/09/27 07:41:12;;;;;;;1159.47;999.90;;;;;;;;;;5004350;28;20030;-75
2021/09/27 07:43:39;;;;;;;1163.47;999.90;;;;;;;;;;5007426;28;20088;-76
2021/09/27 07:46:05;;;;;;;1158.28;999.90;;;;;;;;;;5007646;28;20494;-78
2021/09/27 07:48:31;;;;;;;1157.25;999.90;;;;;;;;;;5008034;28;20040;-76
2021/09/27 07:50:57;;;;;;;1160.88;999.90;;;;;;;;;;5011412;28;20493;-78
2021/09/27 07:53:24;;;;;;;1152.88;999.90;;;;;;;;;;5008672;28;20026;-75
2021/09/27 07:55:51;;;;;;;1158.95;999.90;;;;;;;;;;5011022;28;20028;-75
2021/09/27 07:58:18;;;;;;;1153.85;999.90;;;;;;;;;;5005640;28;20072;-76
2021/09/27 08:00:45;;;;;;;1154.20;999.90;;;;;;;;;;5007669;28;20032;-77
2021/09/27 08:03:11;;;;;;;1149.32;999.90;;;;;;;;;;5004631;28;21499;-77
2021/09/27 08:05:38;;;;;;;1150.07;999.90;;;;;;;;;;5008051;28;20025;-78
2021/09/27 08:08:04;;;;;;;1148.00;999.90;;;;;;;;;;5007952;28;20072;-77
2021/09/27 08:10:30;;;;;;;1140.60;999.90;;;;;;;;;;5009980;28;20029;-77
2021/09/27 08:12:57;;;;;;;1150.88;999.90;;;;;;;;;;5008394;28;20036;-77
2021/09/27 08:15:27;;;;;;;1154.68;999.90;;;;;;;;;;5010094;28;20036;-77
2021/09/27 08:17:53;;;;;;;1151.88;999.90;;;;;;;;;;5010482;28;20029;-78
2021/09/27 08:20:23;;;;;;;1154.05;999.90;;;;;;;;;;5008370;28;20045;-79
2021/09/27 08:22:49;;;;;;;1159.10;999.90;;;;;;;;;;5007038;28;20025;-77
2021/09/27 08:25:16;;;;;;;1162.95;999.90;;;;;;;;;;5004638;28;20517;-77
2021/09/27 08:27:43;;;;;;;1163.07;999.90;;;;;;;;;;5007029;28;20420;-78
2021/09/27 08:30:10;;;;;;;1163.35;999.90;;;;;;;;;;5005014;28;20402;-79
2021/09/27 08:32:36;;;;;;;1171.70;999.90;;;;;;;;;;5006731;28;20084;-78
2021/09/27 08:35:03;;;;;;;1164.88;999.90;;;;;;;;;;5005920;28;20010;-77
2021/09/27 08:37:29;;;;;;;1162.55;999.90;;;;;;;;;;5008853;28;20034;-77
2021/09/27 08:39:56;;;;;;;1164.82;999.90;;;;;;;;;;5004596;28;20033;-77
2021/09/27 08:42:25;;;;;;;1162.60;999.90;;;;;;;;;;5005771;28;20030;-76
2021/09/27 08:44:55;;;;;;;1170.65;999.90;;;;;;;;;;5007068;28;20037;-74
2021/09/27 08:47:25;;;;;;;1169.07;999.90;;;;;;;;;;5009352;28;20068;-76
2021/09/27 08:49:54;;;;;;;1166.05;999.90;;;;;;;;;;5007848;28;20029;-77
2021/09/27 08:52:21;;;;;;;1174.38;999.90;;;;;;;;;;5009966;28;20030;-75
2021/09/27 08:54:49;;;;;;;1176.93;999.90;;;;;;;;;;5007756;28;20521;-75
2021/09/27 08:57:19;;;;;;;1175.40;999.90;;;;;;;;;;5007595;28;20029;-77
2021/09/27 08:59:49;;;;;;;1178.93;999.90;;;;;;;;;;5007056;28;20037;-76
2021/09/27 09:02:34;;;;;;;1181.03;999.90;;;;;;;;;;5003624;28;20140;-76
2021/09/27 09:05:00;;;;;;;1175.43;999.90;;;;;;;;;;5006701;28;20022;-74
2021/09/27 09:07:30;;;;;;;1180.32;999.90;;;;;;;;;;5009301;28;20022;-75
2021/09/27 09:10:05;;;;;;;1180.20;999.90;;;;;;;;;;5005883;28;20109;-77
2021/09/27 09:12:37;;;;;;;1180.70;999.90;;;;;;;;;;5007667;28;20124;-76
2021/09/27 09:15:09;;;;;;;1184.60;999.90;;;;;;;;;;5002583;28;20064;-77
2021/09/27 09:17:37;;;;;;;1190.07;999.90;;;;;;;;;;5007968;28;20029;-75
2021/09/27 09:20:08;;;;;;;1197.82;999.90;;;;;;;;;;5003090;28;20108;-75
2021/09/27 09:22:36;;;;;;;1196.22;999.90;;;;;;;;;;5011317;28;20029;-75
2021/09/27 09:25:07;;;;;;;1196.75;999.90;;;;;;;;;;5006522;28;20034;-76
2021/09/27 09:27:33;;;;;;;1199.03;999.90;;;;;;;;;;5004047;28;20026;-75
2021/09/27 09:29:59;;;;;;;1193.07;999.90;;;;;;;;;;5012782;28;20030;-74
2021/09/27 09:32:27;;;;;;;1197.63;999.90;;;;;;;;;;5003502;28;20025;-74
2021/09/27 09:35:12;;;;;;;1194.65;999.90;;;;;;;;;;5003026;28;20057;-76
2021/09/27 09:37:45;;;;;;;1191.40;999.90;;;;;;;;;;5009239;28;20022;-77
2021/09/27 09:40:17;;;;;;;1194.15;999.90;;;;;;;;;;5026210;28;20026;-77
2021/09/27 09:42:54;;;;;;;1192.40;999.90;;;;;;;;;;5004708;28;20431;-77
2021/09/27 09:45:23;;;;;;;1186.40;999.90;;;;;;;;;;5008067;28;20038;-77
2021/09/27 09:47:50;;;;;;;1200.75;999.90;;;;;;;;;;5010815;28;20022;-76
2021/09/27 09:50:19;;;;;;;1211.47;999.90;;;;;;;;;;5001252;28;20022;-76
2021/09/27 09:52:50;;;;;;;1213.45;999.90;;;;;;;;;;5000296;28;20577;-76
2021/09/27 09:55:28;;;;;;;1215.15;999.90;;;;;;;;;;5002565;28;20077;-77
2021/09/27 09:58:06;;;;;;;1217.95;999.90;;;;;;;;;;5009226;28;20030;-77
2021/09/27 10:00:32;;;;;;;1218.43;999.90;;;;;;;;;;5003074;28;20033;-77
2021/09/27 10:02:58;;;;;;;1214.72;999.90;;;;;;;;;;5005283;28;20033;-77
2021/09/27 10:05:34;;;;;;;1220.05;999.90;;;;;;;;;;5007861;28;20345;-77
2021/09/27 10:08:04;;;;;;;1210.00;999.90;;;;;;;;;;5006794;28;20034;-76
2021/09/27 10:10:30;;;;;;;1206.95;999.90;;;;;;;;;;5002265;28;20486;-75
2021/09/27 10:12:57;;;;;;;1207.68;999.90;;;;;;;;;;5003401;28;20029;-78
2021/09/27 10:15:38;;;;;;;1204.70;999.90;;;;;;;;;;5006369;28;20034;-76
2021/09/27 10:18:27;;;;;;;1204.88;999.90;;;;;;;;;;5004069;28;20371;-75
2021/09/27 10:21:13;;;;;;;1203.47;999.90;;;;;;;;;;4997038;28;20034;-76
2021/09/27 10:23:43;;;;;;;1198.68;999.90;;;;;;;;;;4997370;28;20061;-77
2021/09/27 10:26:13;;;;;;;1198.40;999.90;;;;;;;;;;5003142;28;20037;-77
2021/09/27 10:28:40;;;;;;;1198.50;999.90;;;;;;;;;;5002654;28;20030;-77
2021/09/27 10:31:06;;;;;;;1205.30;999.90;;;;;;;;;;5002009;28;20038;-77
2021/09/27 10:33:38;;;;;;;1209.60;999.90;;;;;;;;;;4999004;28;20029;-78
2021/09/27 10:36:43;;;;;;;1202.07;999.90;;;;;;;;;;5019195;28;20118;-77
2021/09/27 10:39:13;;;;;;;1200.95;999.90;;;;;;;;;;4926152;29;20070;-75
2021/09/27 10:41:45;;;;;;;1209.18;999.90;;;;;;;;;;4924489;29;20094;-75
2021/09/27 10:44:11;;;;;;;1214.65;999.90;;;;;;;;;;4957374;28;20478;-77
2021/09/27 10:46:39;;;;;;;1211.30;999.90;;;;;;;;;;5006098;28;20449;-75
2021/09/27 10:49:08;;;;;;;1204.50;999.90;;;;;;;;;;5007890;28;20026;-77
2021/09/27 10:51:36;;;;;;;1210.20;999.90;;;;;;;;;;5004850;28;20022;-77
2021/09/27 10:54:28;;;;;;;1215.53;999.90;;;;;;;;;;5003654;28;20062;-75
2021/09/27 10:56:58;;;;;;;1213.32;999.90;;;;;;;;;;5001325;28;20069;-76
2021/09/27 10:59:27;;;;;;;1213.10;999.90;;;;;;;;;;5020840;28;20031;-75
2021/09/27 11:01:54;;;;;;;1215.68;999.90;;;;;;;;;;5001717;28;20045;-75
2021/09/27 11:04:23;;;;;;;1220.30;999.90;;;;;;;;;;5006569;28;20026;-75
2021/09/27 11:06:54;;;;;;;1221.20;999.90;;;;;;;;;;5007493;28;20030;-78
2021/09/27 11:09:28;;;;;;;1215.40;999.90;;;;;;;;;;5005291;28;20372;-76
2021/09/27 11:11:57;;;;;;;1214.00;999.90;;;;;;;;;;5008020;28;20053;-76
2021/09/27 11:14:23;;;;;;;1208.57;999.90;;;;;;;;;;5005381;28;20135;-75
2021/09/27 11:16:59;;;;;;;1213.03;999.90;;;;;;;;;;5006350;28;20473;-79
2021/09/27 11:19:35;;;;;;;1211.97;999.90;;;;;;;;;;5009021;28;20034;-77
2021/09/27 11:22:13;;;;;;;1210.97;999.90;;;;;;;;;;5006154;28;20083;-77
2021/09/27 11:24:42;;;;;;;1207.40;999.90;;;;;;;;;;5003929;28;20401;-75
2021/09/27 11:27:17;;;;;;;1205.07;999.90;;;;;;;;;;5006895;28;20069;-78
2021/09/27 11:29:46;;;;;;;1205.65;999.90;;;;;;;;;;5005016;28;20482;-76
2021/09/27 11:32:41;;;;;;;1211.03;999.90;;;;;;;;;;4998222;28;20132;-76
2021/09/27 11:35:32;;;;;;;1201.40;999.90;;;;;;;;;;5014512;28;20038;-78
2021/09/27 11:38:07;;;;;;;1204.70;999.90;;;;;;;;;;4992951;28;20061;-78
2021/09/27 11:40:43;;;;;;;1214.13;999.90;;;;;;;;;;5000433;28;20022;-76
2021/09/27 11:43:15;;;;;;;1205.93;999.90;;;;;;;;;;5005948;28;20362;-76
2021/09/27 11:45:45;;;;;;;1210.80;999.90;;;;;;;;;;5002759;28;20034;-76
2021/09/27 11:48:17;;;;;;;1209.28;999.90;;;;;;;;;;5006793;28;20032;-76
2021/09/27 11:50:53;;;;;;;1214.28;999.90;;;;;;;;;;5005652;28;20467;-78
2021/09/27 11:53:35;;;;;;;1212.43;999.90;;;;;;;;;;5002654;28;20030;-76
2021/09/27 11:56:10;;;;;;;1208.72;999.90;;;;;;;;;;5011992;28;20022;-76
2021/09/27 11:58:46;;;;;;;1221.07;999.90;;;;;;;;;;5002336;28;20129;-78
2021/09/27 12:01:15;;;;;;;1219.82;999.90;;;;;;;;;;5007812;28;20030;-76
2021/09/27 12:04:00;;;;;;;1225.78;999.90;;;;;;;;;;5009121;28;20022;-77
2021/09/27 12:06:37;;;;;;;1225.63;999.90;;;;;;;;;;5001588;28;20374;-75
2021/09/27 12:09:07;;;;;;;1220.30;999.90;;;;;;;;;;4999854;28;20452;-77
2021/09/27 12:11:35;;;;;;;1218.55;999.90;;;;;;;;;;5008051;28;20128;-78
2021/09/27 12:14:02;;;;;;;1221.00;999.90;;;;;;;;;;5020085;28;20029;-78
2021/09/27 12:16:37;;;;;;;1214.28;999.90;;;;;;;;;;5004704;28;20025;-76
2021/09/27 12:19:22;;;;;;;1213.75;999.90;;;;;;;;;;5004294;28;20117;-77
2021/09/27 12:21:50;;;;;;;1213.57;999.90;;;;;;;;;;5006339;28;20021;-77
2021/09/27 12:24:19;;;;;;;1220.35;999.90;;;;;;;;;;5004838;28;20037;-77
2021/09/27 12:26:46;;;;;;;1218.88;999.90;;;;;;;;;;5006172;28;20034;-76
2021/09/27 12:29:12;;;;;;;1224.25;999.90;;;;;;;;;;5005745;28;20121;-76
2021/09/27 12:31:43;;;;;;;1222.38;999.90;;;;;;;;;;5005087;28;20053;-76
2021/09/27 12:34:15;;;;;;;1228.38;999.90;;;;;;;;;;4993173;28;20397;-77
2021/09/27 12:36:41;;;;;;;1231.72;999.90;;;;;;;;;;5006417;28;20025;-79
2021/09/27 12:39:08;;;;;;;1227.50;999.90;;;;;;;;;;5006445;28;20369;-78
2021/09/27 12:41:34;;;;;;;1229.20;999.90;;;;;;;;;;5005310;28;20017;-76
2021/09/27 12:44:08;;;;;;;1229.53;999.90;;;;;;;;;;5004586;28;20028;-77
2021/09/27 12:46:34;;;;;;;1231.05;999.90;;;;;;;;;;5008177;28;20033;-77
2021/09/27 12:49:02;;;;;;;1235.80;999.90;;;;;;;;;;5005667;28;20417;-76
2021/09/27 12:51:31;;;;;;;1234.03;999.90;;;;;;;;;;5005253;28;20234;-75
2021/09/27 12:53:59;;;;;;;1227.82;999.90;;;;;;;;;;4999181;28;20354;-76
2021/09/27 12:56:26;;;;;;;1238.85;999.90;;;;;;;;;;4996959;28;20030;-73
2021/09/27 12:58:59;;;;;;;1238.57;999.90;;;;;;;;;;5002801;28;20034;-75
2021/09/27 13:01:25;;;;;;;1237.28;999.90;;;;;;;;;;5005392;28;20028;-74
2021/09/27 13:04:03;;;;;;;1241.75;999.90;;;;;;;;;;5002493;28;20029;-76
2021/09/27 13:06:31;;;;;;;1237.43;999.90;;;;;;;;;;5006081;28;20105;-74
2021/09/27 13:09:11;;;;;;;1237.13;999.90;;;;;;;;;;5003943;28;20083;-74
2021/09/27 13:11:44;;;;;;;1233.30;999.90;;;;;;;;;;5012745;28;20389;-76
2021/09/27 13:14:21;;;;;;;1233.38;999.90;;;;;;;;;;5007111;28;20034;-74
2021/09/27 13:16:50;;;;;;;1233.93;999.90;;;;;;;;;;5007991;28;20052;-74
2021/09/27 13:19:36;;;;;;;1238.03;999.90;;;;;;;;;;5007131;28;20064;-75
2021/09/27 13:22:03;;;;;;;1231.43;999.90;;;;;;;;;;4998405;28;20506;-75
2021/09/27 13:24:30;;;;;;;1235.43;999.90;;;;;;;;;;5008697;28;20079;-75
2021/09/27 13:27:02;;;;;;;1237.25;999.90;;;;;;;;;;5008756;28;20018;-77
2021/09/27 13:29:28;;;;;;;1235.45;999.90;;;;;;;;;;4998958;28;20034;-77
2021/09/27 13:32:03;;;;;;;1236.97;999.90;;;;;;;;;;5000793;28;20025;-76
2021/09/27 13:34:32;;;;;;;1236.60;999.90;;;;;;;;;;5003837;28;20076;-75
2021/09/27 13:36:58;;;;;;;1232.70;999.90;;;;;;;;;;5006125;28;20068;-76
2021/09/27 13:39:27;;;;;;;1232.65;999.90;;;;;;;;;;5007611;28;20330;-74
2021/09/27 13:41:55;;;;;;;1225.87;999.90;;;;;;;;;;5005612;28;20024;-74
2021/09/27 13:44:40;;;;;;;1227.15;999.90;;;;;;;;;;4999633;28;20146;-74
2021/09/27 13:47:07;;;;;;;1229.75;999.90;;;;;;;;;;5007679;28;20349;-76
2021/09/27 13:49:33;;;;;;;1227.30;999.90;;;;;;;;;;5007469;28;20030;-75
2021/09/27 13:51:59;;;;;;;1224.90;999.90;;;;;;;;;;5009056;28;20111;-73
2021/09/27 13:54:25;;;;;;;1229.40;999.90;;;;;;;;;;5008227;28;20038;-76
2021/09/27 13:56:51;;;;;;;1224.05;999.90;;;;;;;;;;5007581;28;20516;-76
2021/09/27 13:59:17;;;;;;;1218.80;999.90;;;;;;;;;;5005105;28;20021;-78
2021/09/27 14:01:43;;;;;;;1208.25;999.90;;;;;;;;;;5005411;28;20117;-79
2021/09/27 14:04:09;;;;;;;1211.50;999.90;;;;;;;;;;5004910;28;20413;-76
2021/09/27 14:06:35;;;;;;;1202.88;999.90;;;;;;;;;;5006110;28;20061;-77
2021/09/27 14:09:02;;;;;;;1204.45;999.90;;;;;;;;;;4989537;28;20050;-77